sensor_id;sensor_type;location;lat;lon;timestamp;temperature;humidity
6788;DHT22;3431;47.966;10.268;2023-01-23T00:00:21;-3.50;99.90
6788;DHT22;3431;47.966;10.268;2023-01-23T00:00:46;-3.50;99.90
6788;DHT22;3431;47.966;10.268;2023-01-23T00:01:11;-3.50;99.90
6788;DHT22;3431;47.966;10.268;2023-01-23T00:01:34;-3.50;99.90
6788;DHT22;3431;47.966;10.268;2023-01-23T00:01:55;-3.50;99.90
6788;DHT22;3431;47.966;10.268;2023-01-23T00:02:18;-3.50;99.90
6788;DHT22;3431;47.966;10.268;2023-01-23T00:02:39;-3.50;99.90
6788;DHT22;3431;47.966;10.268;2023-01-23T00:03:01;-3.60;99.90
6788;DHT22;3431;47.966;10.268;2023-01-23T00:03:23;-3.60;99.90
6788;DHT22;3431;47.966;10.268;2023-01-23T00:03:45;-3.60;99.90
6788;DHT22;3431;47.966;10.268;2023-01-23T00:04:09;-3.60;99.90
6788;DHT22;3431;47.966;10.268;2023-01-23T00:04:32;-3.60;99.90
6788;DHT22;3431;47.966;10.268;2023-01-23T00:04:54;-3.60;99.90
6788;DHT22;3431;47.966;10.268;2023-01-23T00:05:16;-3.60;99.90
6788;DHT22;3431;47.966;10.268;2023-01-23T00:05:39;-3.60;99.90
6788;DHT22;3431;47.966;10.268;2023-01-23T00:06:02;-3.60;99.90
6788;DHT22;3431;47.966;10.268;2023-01-23T00:06:24;-3.60;99.90
6788;DHT22;3431;47.966;10.268;2023-01-23T00:06:47;-3.60;99.90
6788;DHT22;3431;47.966;10.268;2023-01-23T00:07:10;-3.60;99.90
6788;DHT22;3431;47.966;10.268;2023-01-23T00:07:32;-3.60;99.90
6788;DHT22;3431;47.966;10.268;2023-01-23T00:07:53;-3.60;99.90
6788;DHT22;3431;47.966;10.268;2023-01-23T00:08:15;-3.60;99.90
6788;DHT22;3431;47.966;10.268;2023-01-23T00:08:39;-3.60;99.90
6788;DHT22;3431;47.966;10.268;2023-01-23T00:09:00;-3.60;99.90
6788;DHT22;3431;47.966;10.268;2023-01-23T00:09:22;-3.60;99.90
6788;DHT22;3431;47.966;10.268;2023-01-23T00:09:43;-3.60;99.90
6788;DHT22;3431;47.966;10.268;2023-01-23T00:10:07;-3.60;99.90
6788;DHT22;3431;47.966;10.268;2023-01-23T00:10:29;-3.60;99.90
6788;DHT22;3431;47.966;10.268;2023-01-23T00:10:50;-3.60;99.90
6788;DHT22;3431;47.966;10.268;2023-01-23T00:11:14;-4.00;99.90
6788;DHT22;3431;47.966;10.268;2023-01-23T00:11:36;-3.60;99.90
6788;DHT22;3431;47.966;10.268;2023-01-23T00:11:58;-3.60;99.90
6788;DHT22;3431;47.966;10.268;2023-01-23T00:12:20;-3.60;99.90
6788;DHT22;3431;47.966;10.268;2023-01-23T00:12:42;-3.70;99.90
6788;DHT22;3431;47.966;10.268;2023-01-23T00:13:04;-3.60;99.90
6788;DHT22;3431;47.966;10.268;2023-01-23T00:13:27;-3.60;99.90
6788;DHT22;3431;47.966;10.268;2023-01-23T00:13:49;-3.60;99.90
6788;DHT22;3431;47.966;10.268;2023-01-23T00:14:11;-3.60;99.90
6788;DHT22;3431;47.966;10.268;2023-01-23T00:14:32;-3.70;99.90
6788;DHT22;3431;47.966;10.268;2023-01-23T00:14:55;-3.60;99.90
6788;DHT22;3431;47.966;10.268;2023-01-23T00:15:16;-3.60;99.90
6788;DHT22;3431;47.966;10.268;2023-01-23T00:15:38;-3.60;99.90
6788;DHT22;3431;47.966;10.268;2023-01-23T00:16:02;-3.60;99.90
6788;DHT22;3431;47.966;10.268;2023-01-23T00:16:28;-3.60;99.90
6788;DHT22;3431;47.966;10.268;2023-01-23T00:16:50;-3.60;99.90
6788;DHT22;3431;47.966;10.268;2023-01-23T00:17:12;-3.60;99.90
6788;DHT22;3431;47.966;10.268;2023-01-23T00:17:33;-3.60;99.90
6788;DHT22;3431;47.966;10.268;2023-01-23T00:17:56;-3.60;99.90
6788;DHT22;3431;47.966;10.268;2023-01-23T00:18:18;-3.70;99.90
6788;DHT22;3431;47.966;10.268;2023-01-23T00:18:40;-3.60;99.90
6788;DHT22;3431;47.966;10.268;2023-01-23T00:19:01;-3.70;99.90
6788;DHT22;3431;47.966;10.268;2023-01-23T00:19:24;-3.70;99.90
6788;DHT22;3431;47.966;10.268;2023-01-23T00:19:45;-3.70;99.90
6788;DHT22;3431;47.966;10.268;2023-01-23T00:20:08;-3.70;99.90
6788;DHT22;3431;47.966;10.268;2023-01-23T00:20:30;-3.70;99.90
6788;DHT22;3431;47.966;10.268;2023-01-23T00:20:53;-3.70;99.90
6788;DHT22;3431;47.966;10.268;2023-01-23T00:21:18;-3.70;99.90
6788;DHT22;3431;47.966;10.268;2023-01-23T00:21:39;-3.70;99.90
6788;DHT22;3431;47.966;10.268;2023-01-23T00:22:01;-3.70;99.90
6788;DHT22;3431;47.966;10.268;2023-01-23T00:22:23;-3.70;99.90
6788;DHT22;3431;47.966;10.268;2023-01-23T00:22:45;-3.70;99.90
6788;DHT22;3431;47.966;10.268;2023-01-23T00:23:07;-3.70;99.90
6788;DHT22;3431;47.966;10.268;2023-01-23T00:23:28;-3.80;99.90
6788;DHT22;3431;47.966;10.268;2023-01-23T00:23:51;-3.80;99.90
6788;DHT22;3431;47.966;10.268;2023-01-23T00:24:13;-3.80;99.90
6788;DHT22;3431;47.966;10.268;2023-01-23T00:24:36;-3.80;99.90
6788;DHT22;3431;47.966;10.268;2023-01-23T00:24:57;-3.80;99.90
6788;DHT22;3431;47.966;10.268;2023-01-23T00:25:19;-3.80;99.90
6788;DHT22;3431;47.966;10.268;2023-01-23T00:25:40;-3.90;99.90
6788;DHT22;3431;47.966;10.268;2023-01-23T00:26:03;-3.30;99.90
6788;DHT22;3431;47.966;10.268;2023-01-23T00:26:27;-3.80;99.90
6788;DHT22;3431;47.966;10.268;2023-01-23T00:26:50;-3.90;99.90
6788;DHT22;3431;47.966;10.268;2023-01-23T00:27:11;-3.90;99.90
6788;DHT22;3431;47.966;10.268;2023-01-23T00:27:33;-3.90;99.90
6788;DHT22;3431;47.966;10.268;2023-01-23T00:27:55;-3.90;99.90
6788;DHT22;3431;47.966;10.268;2023-01-23T00:28:17;-3.90;99.90
6788;DHT22;3431;47.966;10.268;2023-01-23T00:28:39;-3.90;99.90
6788;DHT22;3431;47.966;10.268;2023-01-23T00:29:02;-3.90;99.90
6788;DHT22;3431;47.966;10.268;2023-01-23T00:29:25;-3.90;99.90
6788;DHT22;3431;47.966;10.268;2023-01-23T00:29:47;-3.90;99.90
6788;DHT22;3431;47.966;10.268;2023-01-23T00:30:09;-3.90;99.90
6788;DHT22;3431;47.966;10.268;2023-01-23T00:30:31;-3.90;99.90
6788;DHT22;3431;47.966;10.268;2023-01-23T00:31:01;-3.90;99.90
6788;DHT22;3431;47.966;10.268;2023-01-23T00:31:24;-3.90;99.90
6788;DHT22;3431;47.966;10.268;2023-01-23T00:31:46;-3.90;99.90
6788;DHT22;3431;47.966;10.268;2023-01-23T00:32:10;-3.90;99.90
6788;DHT22;3431;47.966;10.268;2023-01-23T00:32:32;-3.90;99.90
6788;DHT22;3431;47.966;10.268;2023-01-23T00:32:56;-4.00;99.90
6788;DHT22;3431;47.966;10.268;2023-01-23T00:33:20;-4.00;99.90
6788;DHT22;3431;47.966;10.268;2023-01-23T00:33:43;-4.00;99.90
6788;DHT22;3431;47.966;10.268;2023-01-23T00:34:06;-4.00;99.90
6788;DHT22;3431;47.966;10.268;2023-01-23T00:34:29;-4.00;99.90
6788;DHT22;3431;47.966;10.268;2023-01-23T00:34:51;-4.00;99.90
6788;DHT22;3431;47.966;10.268;2023-01-23T00:35:12;-4.00;99.90
6788;DHT22;3431;47.966;10.268;2023-01-23T00:35:34;-4.00;99.90
6788;DHT22;3431;47.966;10.268;2023-01-23T00:35:58;-4.10;99.90
6788;DHT22;3431;47.966;10.268;2023-01-23T00:36:19;-4.10;99.90
6788;DHT22;3431;47.966;10.268;2023-01-23T00:36:42;-4.10;99.90
6788;DHT22;3431;47.966;10.268;2023-01-23T00:37:05;-4.00;99.90
6788;DHT22;3431;47.966;10.268;2023-01-23T00:37:27;-4.10;99.90
6788;DHT22;3431;47.966;10.268;2023-01-23T00:37:48;-4.10;99.90
6788;DHT22;3431;47.966;10.268;2023-01-23T00:38:10;-4.10;99.90
6788;DHT22;3431;47.966;10.268;2023-01-23T00:38:31;-4.10;99.90
6788;DHT22;3431;47.966;10.268;2023-01-23T00:38:54;-4.10;99.90
6788;DHT22;3431;47.966;10.268;2023-01-23T00:39:17;-4.10;99.90
6788;DHT22;3431;47.966;10.268;2023-01-23T00:39:40;-4.10;99.90
6788;DHT22;3431;47.966;10.268;2023-01-23T00:40:01;-4.10;99.90
6788;DHT22;3431;47.966;10.268;2023-01-23T00:40:25;-4.10;99.90
6788;DHT22;3431;47.966;10.268;2023-01-23T00:40:46;-4.20;99.90
6788;DHT22;3431;47.966;10.268;2023-01-23T00:41:08;-4.20;99.90
6788;DHT22;3431;47.966;10.268;2023-01-23T00:41:29;-4.20;99.90
6788;DHT22;3431;47.966;10.268;2023-01-23T00:41:51;-4.20;99.90
6788;DHT22;3431;47.966;10.268;2023-01-23T00:42:13;-4.20;99.90
6788;DHT22;3431;47.966;10.268;2023-01-23T00:42:35;-4.20;99.90
6788;DHT22;3431;47.966;10.268;2023-01-23T00:42:56;-4.20;99.90
6788;DHT22;3431;47.966;10.268;2023-01-23T00:43:18;-4.30;99.90
6788;DHT22;3431;47.966;10.268;2023-01-23T00:43:39;-4.20;99.90
6788;DHT22;3431;47.966;10.268;2023-01-23T00:44:02;-4.20;99.90
6788;DHT22;3431;47.966;10.268;2023-01-23T00:44:24;-4.30;99.90
6788;DHT22;3431;47.966;10.268;2023-01-23T00:44:45;-4.30;99.90
6788;DHT22;3431;47.966;10.268;2023-01-23T00:45:07;-4.30;99.90
6788;DHT22;3431;47.966;10.268;2023-01-23T00:45:30;-4.30;99.90
6788;DHT22;3431;47.966;10.268;2023-01-23T00:45:51;-4.30;99.90
6788;DHT22;3431;47.966;10.268;2023-01-23T00:46:13;-4.30;99.90
6788;DHT22;3431;47.966;10.268;2023-01-23T00:46:35;-4.40;99.90
6788;DHT22;3431;47.966;10.268;2023-01-23T00:46:56;-4.30;99.90
6788;DHT22;3431;47.966;10.268;2023-01-23T00:47:19;-4.40;99.90
6788;DHT22;3431;47.966;10.268;2023-01-23T00:47:43;-4.40;99.90
6788;DHT22;3431;47.966;10.268;2023-01-23T00:48:05;-4.40;99.90
6788;DHT22;3431;47.966;10.268;2023-01-23T00:48:26;-4.40;99.90
6788;DHT22;3431;47.966;10.268;2023-01-23T00:48:48;-4.40;99.90
6788;DHT22;3431;47.966;10.268;2023-01-23T00:49:10;-4.40;99.90
6788;DHT22;3431;47.966;10.268;2023-01-23T00:49:32;-4.40;99.90
6788;DHT22;3431;47.966;10.268;2023-01-23T00:49:54;-4.40;99.90
6788;DHT22;3431;47.966;10.268;2023-01-23T00:50:17;-4.40;99.90
6788;DHT22;3431;47.966;10.268;2023-01-23T00:50:40;-4.50;99.90
6788;DHT22;3431;47.966;10.268;2023-01-23T00:51:03;-4.40;99.90
6788;DHT22;3431;47.966;10.268;2023-01-23T00:51:25;-4.50;99.90
6788;DHT22;3431;47.966;10.268;2023-01-23T00:51:47;-4.50;99.90
6788;DHT22;3431;47.966;10.268;2023-01-23T00:52:10;-4.50;99.90
6788;DHT22;3431;47.966;10.268;2023-01-23T00:52:32;-4.50;99.90
6788;DHT22;3431;47.966;10.268;2023-01-23T00:52:53;-4.50;99.90
6788;DHT22;3431;47.966;10.268;2023-01-23T00:53:15;-4.50;99.90
6788;DHT22;3431;47.966;10.268;2023-01-23T00:53:36;-4.50;99.90
6788;DHT22;3431;47.966;10.268;2023-01-23T00:53:59;-4.50;99.90
6788;DHT22;3431;47.966;10.268;2023-01-23T00:54:21;-4.50;99.90
6788;DHT22;3431;47.966;10.268;2023-01-23T00:54:43;-4.50;99.90
6788;DHT22;3431;47.966;10.268;2023-01-23T00:55:07;-4.50;99.90
6788;DHT22;3431;47.966;10.268;2023-01-23T00:55:29;-4.60;99.90
6788;DHT22;3431;47.966;10.268;2023-01-23T00:55:50;-4.50;99.90
6788;DHT22;3431;47.966;10.268;2023-01-23T00:56:12;-4.60;99.90
6788;DHT22;3431;47.966;10.268;2023-01-23T00:56:33;-4.60;99.90
6788;DHT22;3431;47.966;10.268;2023-01-23T00:56:56;-4.60;99.90
6788;DHT22;3431;47.966;10.268;2023-01-23T00:57:18;-4.60;99.90
6788;DHT22;3431;47.966;10.268;2023-01-23T00:57:40;-4.60;99.90
6788;DHT22;3431;47.966;10.268;2023-01-23T00:58:02;-4.60;99.90
6788;DHT22;3431;47.966;10.268;2023-01-23T00:58:24;-4.60;99.90
6788;DHT22;3431;47.966;10.268;2023-01-23T00:58:46;-4.60;99.90
6788;DHT22;3431;47.966;10.268;2023-01-23T00:59:08;-4.60;99.90
6788;DHT22;3431;47.966;10.268;2023-01-23T00:59:29;-4.60;99.90
6788;DHT22;3431;47.966;10.268;2023-01-23T00:59:51;-4.60;99.90
6788;DHT22;3431;47.966;10.268;2023-01-23T01:00:15;-4.60;99.90
6788;DHT22;3431;47.966;10.268;2023-01-23T01:00:37;-4.60;99.90
6788;DHT22;3431;47.966;10.268;2023-01-23T01:00:59;-4.60;99.90
6788;DHT22;3431;47.966;10.268;2023-01-23T01:01:21;-4.60;99.90
6788;DHT22;3431;47.966;10.268;2023-01-23T01:01:44;-4.60;99.90
6788;DHT22;3431;47.966;10.268;2023-01-23T01:02:05;-4.60;99.90
6788;DHT22;3431;47.966;10.268;2023-01-23T01:02:27;-4.60;99.90
6788;DHT22;3431;47.966;10.268;2023-01-23T01:02:49;-4.60;99.90
6788;DHT22;3431;47.966;10.268;2023-01-23T01:03:11;-4.60;99.90
6788;DHT22;3431;47.966;10.268;2023-01-23T01:03:33;-4.60;99.90
6788;DHT22;3431;47.966;10.268;2023-01-23T01:03:56;-4.60;99.90
6788;DHT22;3431;47.966;10.268;2023-01-23T01:04:17;-4.60;99.90
6788;DHT22;3431;47.966;10.268;2023-01-23T01:04:40;-4.60;99.90
6788;DHT22;3431;47.966;10.268;2023-01-23T01:05:01;-4.60;99.90
6788;DHT22;3431;47.966;10.268;2023-01-23T01:05:23;-4.60;99.90
6788;DHT22;3431;47.966;10.268;2023-01-23T01:05:44;-4.60;99.90
6788;DHT22;3431;47.966;10.268;2023-01-23T01:06:08;-4.60;99.90
6788;DHT22;3431;47.966;10.268;2023-01-23T01:06:31;-4.60;99.90
6788;DHT22;3431;47.966;10.268;2023-01-23T01:06:53;-4.60;99.90
6788;DHT22;3431;47.966;10.268;2023-01-23T01:07:17;-4.50;99.90
6788;DHT22;3431;47.966;10.268;2023-01-23T01:07:38;-4.50;99.90
6788;DHT22;3431;47.966;10.268;2023-01-23T01:08:01;-4.50;99.90
6788;DHT22;3431;47.966;10.268;2023-01-23T01:08:23;-4.50;99.90
6788;DHT22;3431;47.966;10.268;2023-01-23T01:08:45;-4.50;99.90
6788;DHT22;3431;47.966;10.268;2023-01-23T01:09:07;-4.40;99.90
6788;DHT22;3431;47.966;10.268;2023-01-23T01:09:29;-4.50;99.90
6788;DHT22;3431;47.966;10.268;2023-01-23T01:09:50;-4.50;99.90
6788;DHT22;3431;47.966;10.268;2023-01-23T01:10:12;-4.40;99.90
6788;DHT22;3431;47.966;10.268;2023-01-23T01:10:35;-4.40;99.90
6788;DHT22;3431;47.966;10.268;2023-01-23T01:10:57;-4.40;99.90
6788;DHT22;3431;47.966;10.268;2023-01-23T01:11:19;-4.40;99.90
6788;DHT22;3431;47.966;10.268;2023-01-23T01:11:40;-4.40;99.90
6788;DHT22;3431;47.966;10.268;2023-01-23T01:12:03;-4.30;99.90
6788;DHT22;3431;47.966;10.268;2023-01-23T01:12:25;-4.30;99.90
6788;DHT22;3431;47.966;10.268;2023-01-23T01:12:47;-4.40;99.90
6788;DHT22;3431;47.966;10.268;2023-01-23T01:13:09;-4.30;99.90
6788;DHT22;3431;47.966;10.268;2023-01-23T01:13:32;-4.30;99.90
6788;DHT22;3431;47.966;10.268;2023-01-23T01:13:54;-4.30;99.90
6788;DHT22;3431;47.966;10.268;2023-01-23T01:14:16;-4.30;99.90
6788;DHT22;3431;47.966;10.268;2023-01-23T01:14:40;-4.30;99.90
6788;DHT22;3431;47.966;10.268;2023-01-23T01:15:02;-4.20;99.90
6788;DHT22;3431;47.966;10.268;2023-01-23T01:15:26;-4.20;99.90
6788;DHT22;3431;47.966;10.268;2023-01-23T01:15:51;-4.20;99.90
6788;DHT22;3431;47.966;10.268;2023-01-23T01:16:13;-4.20;99.90
6788;DHT22;3431;47.966;10.268;2023-01-23T01:16:35;-4.20;99.90
6788;DHT22;3431;47.966;10.268;2023-01-23T01:16:58;-4.20;99.90
6788;DHT22;3431;47.966;10.268;2023-01-23T01:17:19;-4.10;99.90
6788;DHT22;3431;47.966;10.268;2023-01-23T01:17:42;-4.20;99.90
6788;DHT22;3431;47.966;10.268;2023-01-23T01:18:04;-4.20;99.90
6788;DHT22;3431;47.966;10.268;2023-01-23T01:18:26;-4.20;99.90
6788;DHT22;3431;47.966;10.268;2023-01-23T01:18:48;-4.20;99.90
6788;DHT22;3431;47.966;10.268;2023-01-23T01:19:10;-4.20;99.90
6788;DHT22;3431;47.966;10.268;2023-01-23T01:19:32;-4.10;99.90
6788;DHT22;3431;47.966;10.268;2023-01-23T01:19:54;-4.10;99.90
6788;DHT22;3431;47.966;10.268;2023-01-23T01:20:16;-4.10;99.90
6788;DHT22;3431;47.966;10.268;2023-01-23T01:20:39;-4.10;99.90
6788;DHT22;3431;47.966;10.268;2023-01-23T01:21:07;-4.10;99.90
6788;DHT22;3431;47.966;10.268;2023-01-23T01:21:30;-4.10;99.90
6788;DHT22;3431;47.966;10.268;2023-01-23T01:21:51;-4.10;99.90
6788;DHT22;3431;47.966;10.268;2023-01-23T01:22:13;-4.10;99.90
6788;DHT22;3431;47.966;10.268;2023-01-23T01:22:34;-4.00;99.90
6788;DHT22;3431;47.966;10.268;2023-01-23T01:22:57;-4.00;99.90
6788;DHT22;3431;47.966;10.268;2023-01-23T01:23:20;-4.10;99.90
6788;DHT22;3431;47.966;10.268;2023-01-23T01:23:42;-4.10;99.90
6788;DHT22;3431;47.966;10.268;2023-01-23T01:24:04;-4.00;99.90
6788;DHT22;3431;47.966;10.268;2023-01-23T01:24:27;-4.00;99.90
6788;DHT22;3431;47.966;10.268;2023-01-23T01:24:48;-4.00;99.90
6788;DHT22;3431;47.966;10.268;2023-01-23T01:25:10;-4.00;99.90
6788;DHT22;3431;47.966;10.268;2023-01-23T01:25:32;-4.10;99.90
6788;DHT22;3431;47.966;10.268;2023-01-23T01:25:57;-4.10;99.90
6788;DHT22;3431;47.966;10.268;2023-01-23T01:26:20;-4.00;99.90
6788;DHT22;3431;47.966;10.268;2023-01-23T01:26:44;-4.10;99.90
6788;DHT22;3431;47.966;10.268;2023-01-23T01:27:05;-4.10;99.90
6788;DHT22;3431;47.966;10.268;2023-01-23T01:27:27;-4.10;99.90
6788;DHT22;3431;47.966;10.268;2023-01-23T01:27:49;-4.10;99.90
6788;DHT22;3431;47.966;10.268;2023-01-23T01:28:12;-4.10;99.90
6788;DHT22;3431;47.966;10.268;2023-01-23T01:28:35;-4.10;99.90
6788;DHT22;3431;47.966;10.268;2023-01-23T01:28:58;-4.20;99.90
6788;DHT22;3431;47.966;10.268;2023-01-23T01:29:19;-4.10;99.90
6788;DHT22;3431;47.966;10.268;2023-01-23T01:29:42;-4.10;99.90
6788;DHT22;3431;47.966;10.268;2023-01-23T01:30:04;-4.10;99.90
6788;DHT22;3431;47.966;10.268;2023-01-23T01:30:26;-4.10;99.90
6788;DHT22;3431;47.966;10.268;2023-01-23T01:30:47;-4.10;99.90
6788;DHT22;3431;47.966;10.268;2023-01-23T01:31:11;-4.20;99.90
6788;DHT22;3431;47.966;10.268;2023-01-23T01:31:34;-4.20;99.90
6788;DHT22;3431;47.966;10.268;2023-01-23T01:31:57;-4.20;99.90
6788;DHT22;3431;47.966;10.268;2023-01-23T01:32:18;-4.20;99.90
6788;DHT22;3431;47.966;10.268;2023-01-23T01:32:42;-4.20;99.90
6788;DHT22;3431;47.966;10.268;2023-01-23T01:33:04;-4.20;99.90
6788;DHT22;3431;47.966;10.268;2023-01-23T01:33:26;-4.20;99.90
6788;DHT22;3431;47.966;10.268;2023-01-23T01:33:48;-4.20;99.90
6788;DHT22;3431;47.966;10.268;2023-01-23T01:34:12;-4.20;99.90
6788;DHT22;3431;47.966;10.268;2023-01-23T01:34:34;-4.20;99.90
6788;DHT22;3431;47.966;10.268;2023-01-23T01:34:56;-4.20;99.90
6788;DHT22;3431;47.966;10.268;2023-01-23T01:35:18;-4.20;99.90
6788;DHT22;3431;47.966;10.268;2023-01-23T01:35:41;-4.20;99.90
6788;DHT22;3431;47.966;10.268;2023-01-23T01:36:03;-4.20;99.90
6788;DHT22;3431;47.966;10.268;2023-01-23T01:36:30;-4.20;99.90
6788;DHT22;3431;47.966;10.268;2023-01-23T01:36:51;-4.20;99.90
6788;DHT22;3431;47.966;10.268;2023-01-23T01:37:13;-4.20;99.90
6788;DHT22;3431;47.966;10.268;2023-01-23T01:37:36;-4.20;99.90
6788;DHT22;3431;47.966;10.268;2023-01-23T01:37:59;-4.20;99.90
6788;DHT22;3431;47.966;10.268;2023-01-23T01:38:21;-4.20;99.90
6788;DHT22;3431;47.966;10.268;2023-01-23T01:38:43;-4.10;99.90
6788;DHT22;3431;47.966;10.268;2023-01-23T01:39:05;-4.20;99.90
6788;DHT22;3431;47.966;10.268;2023-01-23T01:39:27;-4.20;99.90
6788;DHT22;3431;47.966;10.268;2023-01-23T01:39:49;-4.20;99.90
6788;DHT22;3431;47.966;10.268;2023-01-23T01:40:13;-4.20;99.90
6788;DHT22;3431;47.966;10.268;2023-01-23T01:40:36;-4.20;99.90
6788;DHT22;3431;47.966;10.268;2023-01-23T01:40:59;-4.20;99.90
6788;DHT22;3431;47.966;10.268;2023-01-23T01:41:20;-4.20;99.90
6788;DHT22;3431;47.966;10.268;2023-01-23T01:41:42;-4.20;99.90
6788;DHT22;3431;47.966;10.268;2023-01-23T01:42:04;-4.20;99.90
6788;DHT22;3431;47.966;10.268;2023-01-23T01:42:26;-4.10;99.90
6788;DHT22;3431;47.966;10.268;2023-01-23T01:42:51;-4.10;99.90
6788;DHT22;3431;47.966;10.268;2023-01-23T01:43:17;-4.10;99.90
6788;DHT22;3431;47.966;10.268;2023-01-23T01:43:39;-4.10;99.90
6788;DHT22;3431;47.966;10.268;2023-01-23T01:44:01;-4.10;99.90
6788;DHT22;3431;47.966;10.268;2023-01-23T01:44:24;-4.10;99.90
6788;DHT22;3431;47.966;10.268;2023-01-23T01:44:53;-4.10;99.90
6788;DHT22;3431;47.966;10.268;2023-01-23T01:46:20;-4.10;99.90
6788;DHT22;3431;47.966;10.268;2023-01-23T01:46:41;-4.10;99.90
6788;DHT22;3431;47.966;10.268;2023-01-23T01:47:05;-4.10;99.90
6788;DHT22;3431;47.966;10.268;2023-01-23T01:47:29;-4.10;99.90
6788;DHT22;3431;47.966;10.268;2023-01-23T01:47:50;-4.10;99.90
6788;DHT22;3431;47.966;10.268;2023-01-23T01:48:13;-4.10;99.90
6788;DHT22;3431;47.966;10.268;2023-01-23T01:48:39;-4.10;99.90
6788;DHT22;3431;47.966;10.268;2023-01-23T01:49:06;-4.10;99.90
6788;DHT22;3431;47.966;10.268;2023-01-23T01:49:31;-4.10;99.90
6788;DHT22;3431;47.966;10.268;2023-01-23T01:49:58;-4.10;99.90
6788;DHT22;3431;47.966;10.268;2023-01-23T01:50:21;-4.10;99.90
6788;DHT22;3431;47.966;10.268;2023-01-23T01:50:42;-4.10;99.90
6788;DHT22;3431;47.966;10.268;2023-01-23T01:51:08;-4.10;99.90
6788;DHT22;3431;47.966;10.268;2023-01-23T01:51:34;-4.10;99.90
6788;DHT22;3431;47.966;10.268;2023-01-23T01:52:01;-4.10;99.90
6788;DHT22;3431;47.966;10.268;2023-01-23T01:52:24;-4.20;99.90
6788;DHT22;3431;47.966;10.268;2023-01-23T01:52:46;-4.20;99.90
6788;DHT22;3431;47.966;10.268;2023-01-23T01:53:08;-4.20;99.90
6788;DHT22;3431;47.966;10.268;2023-01-23T01:53:30;-4.20;99.90
6788;DHT22;3431;47.966;10.268;2023-01-23T01:54:00;-4.20;99.90
6788;DHT22;3431;47.966;10.268;2023-01-23T01:54:25;-4.10;99.90
6788;DHT22;3431;47.966;10.268;2023-01-23T01:54:52;-4.20;99.90
6788;DHT22;3431;47.966;10.268;2023-01-23T01:55:16;-4.20;99.90
6788;DHT22;3431;47.966;10.268;2023-01-23T01:55:39;-4.10;99.90
6788;DHT22;3431;47.966;10.268;2023-01-23T01:56:01;-4.10;99.90
6788;DHT22;3431;47.966;10.268;2023-01-23T01:56:24;-4.20;99.90
6788;DHT22;3431;47.966;10.268;2023-01-23T01:56:48;-4.10;99.90
6788;DHT22;3431;47.966;10.268;2023-01-23T01:57:16;-4.10;99.90
6788;DHT22;3431;47.966;10.268;2023-01-23T01:57:43;-4.10;99.90
6788;DHT22;3431;47.966;10.268;2023-01-23T01:58:05;-4.10;99.90
6788;DHT22;3431;47.966;10.268;2023-01-23T01:58:27;-4.10;99.90
6788;DHT22;3431;47.966;10.268;2023-01-23T01:58:51;-4.10;99.90
6788;DHT22;3431;47.966;10.268;2023-01-23T01:59:14;-4.10;99.90
6788;DHT22;3431;47.966;10.268;2023-01-23T01:59:41;-4.10;99.90
6788;DHT22;3431;47.966;10.268;2023-01-23T02:00:07;-4.10;99.90
6788;DHT22;3431;47.966;10.268;2023-01-23T02:00:35;-4.10;99.90
6788;DHT22;3431;47.966;10.268;2023-01-23T02:00:57;-4.10;99.90
6788;DHT22;3431;47.966;10.268;2023-01-23T02:01:19;-4.10;99.90
6788;DHT22;3431;47.966;10.268;2023-01-23T02:01:42;-4.10;99.90
6788;DHT22;3431;47.966;10.268;2023-01-23T02:02:11;-4.10;99.90
6788;DHT22;3431;47.966;10.268;2023-01-23T02:02:35;-4.10;99.90
6788;DHT22;3431;47.966;10.268;2023-01-23T02:03:00;-4.10;99.90
6788;DHT22;3431;47.966;10.268;2023-01-23T02:03:24;-4.10;99.90
6788;DHT22;3431;47.966;10.268;2023-01-23T02:03:47;-4.10;99.90
6788;DHT22;3431;47.966;10.268;2023-01-23T02:04:11;-4.10;99.90
6788;DHT22;3431;47.966;10.268;2023-01-23T02:04:33;-4.10;99.90
6788;DHT22;3431;47.966;10.268;2023-01-23T02:05:00;-4.10;99.90
6788;DHT22;3431;47.966;10.268;2023-01-23T02:05:25;-4.10;99.90
6788;DHT22;3431;47.966;10.268;2023-01-23T02:05:48;-4.00;99.90
6788;DHT22;3431;47.966;10.268;2023-01-23T02:06:10;-4.00;99.90
6788;DHT22;3431;47.966;10.268;2023-01-23T02:06:34;-4.00;99.90
6788;DHT22;3431;47.966;10.268;2023-01-23T02:06:58;-4.00;99.90
6788;DHT22;3431;47.966;10.268;2023-01-23T02:07:23;-4.00;99.90
6788;DHT22;3431;47.966;10.268;2023-01-23T02:07:50;-4.00;99.90
6788;DHT22;3431;47.966;10.268;2023-01-23T02:08:19;-4.00;99.90
6788;DHT22;3431;47.966;10.268;2023-01-23T02:08:46;-4.00;99.90
6788;DHT22;3431;47.966;10.268;2023-01-23T02:09:16;-4.00;99.90
6788;DHT22;3431;47.966;10.268;2023-01-23T02:09:40;-4.00;99.90
6788;DHT22;3431;47.966;10.268;2023-01-23T02:10:06;-4.00;99.90
6788;DHT22;3431;47.966;10.268;2023-01-23T02:10:28;-3.90;99.90
6788;DHT22;3431;47.966;10.268;2023-01-23T02:10:50;-3.90;99.90
6788;DHT22;3431;47.966;10.268;2023-01-23T02:11:13;-3.90;99.90
6788;DHT22;3431;47.966;10.268;2023-01-23T02:11:37;-4.00;99.90
6788;DHT22;3431;47.966;10.268;2023-01-23T02:12:00;-4.00;99.90
6788;DHT22;3431;47.966;10.268;2023-01-23T02:12:21;-4.00;99.90
6788;DHT22;3431;47.966;10.268;2023-01-23T02:12:45;-4.00;99.90
6788;DHT22;3431;47.966;10.268;2023-01-23T02:13:21;-4.00;99.90
6788;DHT22;3431;47.966;10.268;2023-01-23T02:13:45;-4.00;99.90
6788;DHT22;3431;47.966;10.268;2023-01-23T02:14:06;-4.00;99.90
6788;DHT22;3431;47.966;10.268;2023-01-23T02:14:28;-4.00;99.90
6788;DHT22;3431;47.966;10.268;2023-01-23T02:14:50;-4.00;99.90
6788;DHT22;3431;47.966;10.268;2023-01-23T02:15:14;-4.00;99.90
6788;DHT22;3431;47.966;10.268;2023-01-23T02:15:36;-4.00;99.90
6788;DHT22;3431;47.966;10.268;2023-01-23T02:16:00;-4.00;99.90
6788;DHT22;3431;47.966;10.268;2023-01-23T02:16:26;-4.00;99.90
6788;DHT22;3431;47.966;10.268;2023-01-23T02:16:50;-4.00;99.90
6788;DHT22;3431;47.966;10.268;2023-01-23T02:17:13;-4.00;99.90
6788;DHT22;3431;47.966;10.268;2023-01-23T02:17:35;-3.90;99.90
6788;DHT22;3431;47.966;10.268;2023-01-23T02:17:57;-3.90;99.90
6788;DHT22;3431;47.966;10.268;2023-01-23T02:18:20;-3.90;99.90
6788;DHT22;3431;47.966;10.268;2023-01-23T02:18:44;-3.90;99.90
6788;DHT22;3431;47.966;10.268;2023-01-23T02:19:15;-3.90;99.90
6788;DHT22;3431;47.966;10.268;2023-01-23T02:19:44;-3.90;99.90
6788;DHT22;3431;47.966;10.268;2023-01-23T02:20:14;-3.90;99.90
6788;DHT22;3431;47.966;10.268;2023-01-23T02:20:38;-3.90;99.90
6788;DHT22;3431;47.966;10.268;2023-01-23T02:21:03;-3.90;99.90
6788;DHT22;3431;47.966;10.268;2023-01-23T02:21:27;-3.90;99.90
6788;DHT22;3431;47.966;10.268;2023-01-23T02:21:54;-3.90;99.90
6788;DHT22;3431;47.966;10.268;2023-01-23T02:22:26;-3.90;99.90
6788;DHT22;3431;47.966;10.268;2023-01-23T02:22:59;-3.90;99.90
6788;DHT22;3431;47.966;10.268;2023-01-23T02:23:35;-3.90;99.90
6788;DHT22;3431;47.966;10.268;2023-01-23T02:24:08;-3.90;99.90
6788;DHT22;3431;47.966;10.268;2023-01-23T02:24:35;-4.00;99.90
6788;DHT22;3431;47.966;10.268;2023-01-23T02:25:07;-3.90;99.90
6788;DHT22;3431;47.966;10.268;2023-01-23T02:25:37;-3.90;99.90
6788;DHT22;3431;47.966;10.268;2023-01-23T02:26:04;-3.90;99.90
6788;DHT22;3431;47.966;10.268;2023-01-23T02:26:30;-3.90;99.90
6788;DHT22;3431;47.966;10.268;2023-01-23T02:26:53;-3.90;99.90
6788;DHT22;3431;47.966;10.268;2023-01-23T02:27:15;-3.90;99.90
6788;DHT22;3431;47.966;10.268;2023-01-23T02:27:36;-3.90;99.90
6788;DHT22;3431;47.966;10.268;2023-01-23T02:27:59;-3.90;99.90
6788;DHT22;3431;47.966;10.268;2023-01-23T02:28:22;-3.90;99.90
6788;DHT22;3431;47.966;10.268;2023-01-23T02:28:46;-3.90;99.90
6788;DHT22;3431;47.966;10.268;2023-01-23T02:29:13;-3.90;99.90